createdAt,value
2023-03-21T00:00:16.400Z,9.99
2023-03-21T00:01:16.417Z,10.01
2023-03-21T00:02:16.334Z,10.02
2023-03-21T00:03:16.420Z,10.01
2023-03-21T00:04:16.380Z,9.98
2023-03-21T00:05:16.450Z,9.98
2023-03-21T00:06:16.306Z,9.99
2023-03-21T00:07:16.289Z,9.98
2023-03-21T00:08:16.291Z,10.01
2023-03-21T00:09:16.276Z,10.01
2023-03-21T00:10:23.961Z,9.99
2023-03-21T00:11:16.455Z,10.02
2023-03-21T00:12:16.347Z,10.06
2023-03-21T00:13:16.244Z,10.06
2023-03-21T00:14:16.244Z,10.03
2023-03-21T00:15:16.442Z,10.10
2023-03-21T00:16:20.765Z,10.10
2023-03-21T00:17:16.230Z,10.09
2023-03-21T00:18:16.224Z,10.06
2023-03-21T00:19:16.218Z,10.09
2023-03-21T00:20:16.228Z,10.08
2023-03-21T00:21:40.662Z,10.09
2023-03-21T00:22:16.219Z,10.14
2023-03-21T00:23:16.223Z,10.12
2023-03-21T00:24:16.192Z,10.14
2023-03-21T00:25:16.974Z,10.12
2023-03-21T00:26:16.177Z,10.16
2023-03-21T00:27:39.759Z,10.14
2023-03-21T00:28:16.181Z,10.14
2023-03-21T00:29:16.141Z,10.14
2023-03-21T00:30:16.151Z,10.16
2023-03-21T00:31:16.190Z,10.17
2023-03-21T00:32:16.121Z,10.17
2023-03-21T00:33:22.555Z,10.12
2023-03-21T00:34:17.692Z,10.14
2023-03-21T00:35:53.128Z,10.10
2023-03-21T00:36:16.224Z,10.14
2023-03-21T00:37:16.087Z,10.12
2023-03-21T00:38:16.083Z,10.14
2023-03-21T00:39:16.068Z,10.14
2023-03-21T00:40:25.782Z,10.14
2023-03-21T00:41:26.156Z,10.16
2023-03-21T00:42:16.050Z,10.14
2023-03-21T00:43:16.041Z,10.12
2023-03-21T00:44:16.223Z,10.16
2023-03-21T00:45:16.092Z,10.17
2023-03-21T00:46:16.044Z,10.16
2023-03-21T00:47:16.048Z,10.14
2023-03-21T00:48:16.033Z,10.16
2023-03-21T00:49:16.035Z,10.17
2023-03-21T00:50:16.026Z,10.16
2023-03-21T00:51:16.033Z,10.16
2023-03-21T00:52:22.373Z,10.16
2023-03-21T00:53:15.983Z,10.16
2023-03-21T00:54:15.976Z,10.14
2023-03-21T00:55:15.966Z,10.14
2023-03-21T00:56:16.028Z,10.12
2023-03-21T00:57:16.213Z,10.16
2023-03-21T00:58:15.953Z,10.14
2023-03-21T00:59:16.929Z,10.14
2023-03-21T01:00:16.585Z,10.14
2023-03-21T01:01:16.246Z,10.14
2023-03-21T01:02:16.953Z,10.12
2023-03-21T01:03:24.603Z,10.14
2023-03-21T01:04:15.895Z,10.10
2023-03-21T01:05:15.884Z,10.14
2023-03-21T01:06:15.902Z,10.17
2023-03-21T01:07:15.877Z,10.14
2023-03-21T01:08:25.366Z,10.14
2023-03-21T01:09:15.871Z,10.14
2023-03-21T01:10:15.854Z,10.17
2023-03-21T01:11:15.893Z,10.14
2023-03-21T01:12:15.833Z,10.16
2023-03-21T01:13:15.852Z,10.10
2023-03-21T01:14:23.827Z,10.12
2023-03-21T01:15:15.814Z,10.17
2023-03-21T01:16:15.910Z,10.16
2023-03-21T01:17:15.813Z,10.14
2023-03-21T01:18:15.811Z,10.16
2023-03-21T01:19:25.150Z,10.18
2023-03-21T01:20:15.811Z,10.17
2023-03-21T01:21:15.793Z,10.18
2023-03-21T01:22:15.761Z,10.17
2023-03-21T01:23:15.760Z,10.20
2023-03-21T01:24:15.773Z,10.20
2023-03-21T01:25:22.382Z,10.21
2023-03-21T01:26:15.763Z,10.20
2023-03-21T01:27:15.727Z,10.18
2023-03-21T01:28:15.738Z,10.18
2023-03-21T01:29:15.739Z,10.20
2023-03-21T01:30:21.467Z,10.23
2023-03-21T01:31:15.808Z,10.20
2023-03-21T01:32:15.697Z,10.21
2023-03-21T01:33:16.200Z,10.21
2023-03-21T01:34:15.689Z,10.20
2023-03-21T01:35:15.679Z,10.20
2023-03-21T01:36:16.102Z,10.21
2023-03-21T01:37:16.231Z,10.18
2023-03-21T01:38:15.646Z,10.20
2023-03-21T01:39:15.658Z,10.24
2023-03-21T01:40:15.636Z,10.23
2023-03-21T01:41:19.928Z,10.20
2023-03-21T01:42:15.667Z,10.21
2023-03-21T01:43:15.615Z,10.26
2023-03-21T01:44:15.857Z,10.21
2023-03-21T01:45:15.855Z,10.21
2023-03-21T01:46:15.708Z,10.23
2023-03-21T01:47:15.607Z,10.23
2023-03-21T01:48:15.651Z,10.23
2023-03-21T01:49:15.576Z,10.21
2023-03-21T01:50:15.600Z,10.23
2023-03-21T01:51:17.762Z,10.26
2023-03-21T01:52:26.331Z,10.21
2023-03-21T01:53:15.553Z,10.20
2023-03-21T01:54:15.613Z,10.23
2023-03-21T01:55:16.329Z,10.23
2023-03-21T01:56:15.732Z,10.21
2023-03-21T01:57:16.480Z,10.21
2023-03-21T01:58:15.541Z,10.20
2023-03-21T01:59:16.567Z,10.21
2023-03-21T02:00:15.802Z,10.20
2023-03-21T02:01:16.173Z,10.20
2023-03-21T02:02:16.505Z,10.20
2023-03-21T02:03:26.162Z,10.21
2023-03-21T02:04:16.413Z,10.20
2023-03-21T02:05:16.481Z,10.18
2023-03-21T02:06:16.380Z,10.20
2023-03-21T02:07:15.457Z,10.18
2023-03-21T02:08:16.633Z,10.18
2023-03-21T02:09:16.387Z,10.18
2023-03-21T02:10:16.260Z,10.17
2023-03-21T02:11:16.169Z,10.18
2023-03-21T02:12:16.363Z,10.18
2023-03-21T02:13:15.467Z,10.17
2023-03-21T02:14:26.510Z,10.20
2023-03-21T02:15:15.438Z,10.20
2023-03-21T02:16:15.644Z,10.20
2023-03-21T02:17:15.393Z,10.18
2023-03-21T02:18:15.370Z,10.24
2023-03-21T02:19:17.659Z,10.20
2023-03-21T02:20:15.377Z,10.20
2023-03-21T02:21:15.599Z,10.21
2023-03-21T02:22:15.380Z,10.21
2023-03-21T02:23:15.399Z,10.21
2023-03-21T02:24:15.345Z,10.26
2023-03-21T02:25:21.822Z,10.21
2023-03-21T02:26:15.348Z,10.23
2023-03-21T02:27:15.427Z,10.21
2023-03-21T02:28:15.323Z,10.23
2023-03-21T02:29:15.458Z,10.18
2023-03-21T02:30:26.572Z,10.21
2023-03-21T02:31:15.533Z,10.23
2023-03-21T02:32:25.302Z,10.20
2023-03-21T02:33:15.275Z,10.21
2023-03-21T02:34:15.256Z,10.24
2023-03-21T02:35:15.266Z,10.23
2023-03-21T02:36:15.281Z,10.26
2023-03-21T02:37:16.048Z,10.26
2023-03-21T02:38:15.227Z,10.30
2023-03-21T02:39:15.230Z,10.26
2023-03-21T02:40:15.215Z,10.26
2023-03-21T02:41:19.072Z,10.26
2023-03-21T02:42:15.210Z,10.27
2023-03-21T02:43:23.018Z,10.27
2023-03-21T02:44:15.195Z,10.27
2023-03-21T02:45:15.193Z,10.26
2023-03-21T02:46:15.332Z,10.27
2023-03-21T02:47:15.668Z,10.23
2023-03-21T02:48:27.702Z,10.23
2023-03-21T02:49:15.665Z,10.21
2023-03-21T02:50:15.672Z,10.23
2023-03-21T02:51:15.195Z,10.24
2023-03-21T02:52:25.604Z,10.26
2023-03-21T02:53:15.206Z,10.24
2023-03-21T02:54:35.065Z,10.28
2023-03-21T02:55:15.137Z,10.27
2023-03-21T02:56:15.122Z,10.26
2023-03-21T02:57:15.102Z,10.24
2023-03-21T02:58:15.094Z,10.26
2023-03-21T02:59:15.445Z,10.26
2023-03-21T03:00:16.940Z,10.27
2023-03-21T03:01:15.161Z,10.24
2023-03-21T03:02:15.545Z,10.26
2023-03-21T03:03:28.102Z,10.27
2023-03-21T03:04:15.162Z,10.27
2023-03-21T03:05:21.197Z,10.23
2023-03-21T03:06:15.087Z,10.24
2023-03-21T03:07:15.106Z,10.20
2023-03-21T03:08:15.187Z,10.23
2023-03-21T03:09:15.194Z,10.27
2023-03-21T03:10:15.035Z,10.26
2023-03-21T03:11:15.075Z,10.21
2023-03-21T03:12:15.024Z,10.26
2023-03-21T03:13:15.011Z,10.26
2023-03-21T03:14:38.497Z,10.26
2023-03-21T03:15:15.404Z,10.24
2023-03-21T03:16:15.061Z,10.27
2023-03-21T03:17:15.582Z,10.26
2023-03-21T03:18:15.588Z,10.28
2023-03-21T03:19:15.678Z,10.27
2023-03-21T03:20:17.036Z,10.28
2023-03-21T03:21:15.116Z,10.31
2023-03-21T03:22:15.743Z,10.28
2023-03-21T03:23:14.926Z,10.27
2023-03-21T03:24:15.815Z,10.28
2023-03-21T03:25:23.034Z,10.31
2023-03-21T03:26:14.975Z,10.27
2023-03-21T03:27:14.900Z,10.27
2023-03-21T03:28:14.898Z,10.24
2023-03-21T03:29:14.890Z,10.26
2023-03-21T03:30:14.874Z,10.28
2023-03-21T03:31:15.366Z,10.26
2023-03-21T03:32:15.063Z,10.24
2023-03-21T03:33:15.068Z,10.27
2023-03-21T03:34:15.072Z,10.24
2023-03-21T03:35:15.082Z,10.26
2023-03-21T03:36:28.682Z,10.26
2023-03-21T03:37:15.180Z,10.28
2023-03-21T03:38:15.168Z,10.26
2023-03-21T03:39:15.409Z,10.26
2023-03-21T03:40:14.808Z,10.27
2023-03-21T03:41:14.839Z,10.28
2023-03-21T03:42:27.124Z,10.30
2023-03-21T03:43:14.795Z,10.28
2023-03-21T03:44:14.769Z,10.30
2023-03-21T03:45:14.766Z,10.26
2023-03-21T03:46:14.858Z,10.27
2023-03-21T03:47:26.205Z,10.24
2023-03-21T03:48:14.766Z,10.24
2023-03-21T03:49:14.734Z,10.24
2023-03-21T03:50:14.735Z,10.28
2023-03-21T03:51:14.735Z,10.26
2023-03-21T03:52:14.724Z,10.28
2023-03-21T03:53:18.399Z,10.26
2023-03-21T03:54:14.722Z,10.26
2023-03-21T03:55:14.693Z,10.26
2023-03-21T03:56:14.682Z,10.24
2023-03-21T03:57:14.692Z,10.24
2023-03-21T03:58:22.819Z,10.26
2023-03-21T03:59:14.673Z,10.27
2023-03-21T04:00:14.662Z,10.26
2023-03-21T04:01:14.676Z,10.27
2023-03-21T04:02:14.724Z,10.27
2023-03-21T04:03:14.661Z,10.28
2023-03-21T04:04:14.661Z,10.28
2023-03-21T04:05:14.694Z,10.28
2023-03-21T04:06:14.633Z,10.30
2023-03-21T04:07:14.675Z,10.31
2023-03-21T04:08:14.613Z,10.28
2023-03-21T04:09:20.983Z,10.30
2023-03-21T04:10:14.587Z,10.31
2023-03-21T04:11:14.615Z,10.30
2023-03-21T04:12:14.627Z,10.30
2023-03-21T04:13:14.580Z,10.31
2023-03-21T04:14:14.566Z,10.31
2023-03-21T04:15:14.565Z,10.31
2023-03-21T04:16:14.591Z,10.30
2023-03-21T04:17:14.563Z,10.28
2023-03-21T04:18:14.542Z,10.28
2023-03-21T04:19:14.556Z,10.28
2023-03-21T04:20:23.601Z,10.31
2023-03-21T04:21:14.555Z,10.30
2023-03-21T04:22:14.546Z,10.30
2023-03-21T04:23:14.506Z,10.30
2023-03-21T04:24:14.493Z,10.27
2023-03-21T04:25:21.862Z,10.26
2023-03-21T04:26:14.498Z,10.27
2023-03-21T04:27:14.484Z,10.28
2023-03-21T04:28:14.460Z,10.24
2023-03-21T04:29:14.473Z,10.28
2023-03-21T04:30:14.480Z,10.27
2023-03-21T04:31:25.206Z,10.24
2023-03-21T04:32:14.501Z,10.30
2023-03-21T04:33:14.431Z,10.27
2023-03-21T04:34:14.427Z,10.28
2023-03-21T04:35:14.410Z,10.28
2023-03-21T04:36:14.466Z,10.30
2023-03-21T04:37:14.424Z,10.27
2023-03-21T04:38:14.390Z,10.28
2023-03-21T04:39:14.390Z,10.27
2023-03-21T04:40:14.378Z,10.30
2023-03-21T04:41:15.136Z,10.31
2023-03-21T04:42:15.229Z,10.28
2023-03-21T04:43:15.351Z,10.24
2023-03-21T04:44:14.380Z,10.27
2023-03-21T04:45:14.349Z,10.26
2023-03-21T04:46:14.395Z,10.26
2023-03-21T04:47:14.350Z,10.26
2023-03-21T04:48:14.365Z,10.24
2023-03-21T04:49:14.319Z,10.26
2023-03-21T04:50:14.313Z,10.23
2023-03-21T04:51:14.329Z,10.24
2023-03-21T04:52:14.398Z,10.26
2023-03-21T04:53:14.455Z,10.27
2023-03-21T04:55:24.856Z,10.23
2023-03-21T04:56:24.434Z,10.24
2023-03-21T04:57:24.500Z,10.20
2023-03-21T04:58:24.915Z,10.20
2023-03-21T04:59:24.872Z,10.17
2023-03-21T05:00:24.389Z,10.09
2023-03-21T05:01:24.427Z,10.09
2023-03-21T05:02:24.412Z,10.05
2023-03-21T05:03:24.377Z,10.01
2023-03-21T05:04:24.387Z,9.98
2023-03-21T05:05:24.362Z,9.94
2023-03-21T05:06:24.352Z,9.90
2023-03-21T05:07:25.343Z,9.88
2023-03-21T05:08:25.424Z,9.84
2023-03-21T05:09:25.182Z,9.80
2023-03-21T05:10:24.321Z,9.83
2023-03-21T05:11:24.320Z,9.81
2023-03-21T05:12:24.308Z,9.78
2023-03-21T05:13:24.592Z,9.80
2023-03-21T05:14:24.299Z,9.75
2023-03-21T05:15:24.289Z,9.80
2023-03-21T05:16:24.685Z,9.70
2023-03-21T05:17:24.282Z,9.77
2023-03-21T05:18:24.279Z,9.72
2023-03-21T05:19:24.286Z,9.67
2023-03-21T05:20:24.827Z,9.67
2023-03-21T05:21:24.247Z,9.67
2023-03-21T05:22:24.278Z,9.65
2023-03-21T05:23:24.246Z,9.65
2023-03-21T05:24:24.217Z,9.57
2023-03-21T05:25:24.214Z,9.54
2023-03-21T05:26:24.206Z,9.54
2023-03-21T05:27:24.197Z,9.50
2023-03-21T05:28:24.207Z,9.45
2023-03-21T05:29:24.248Z,9.45
2023-03-21T05:30:24.184Z,9.48
2023-03-21T05:31:24.190Z,9.52
2023-03-21T05:32:24.170Z,9.54
2023-03-21T05:33:24.181Z,9.52
2023-03-21T05:34:24.156Z,9.54
2023-03-21T05:35:25.749Z,9.48
2023-03-21T05:36:24.346Z,9.48
2023-03-21T05:37:24.132Z,9.44
2023-03-21T05:38:24.134Z,9.48
2023-03-21T05:39:24.205Z,9.45
2023-03-21T05:40:24.128Z,9.44
2023-03-21T05:41:24.143Z,9.44
2023-03-21T05:42:24.129Z,9.44
2023-03-21T05:43:24.145Z,9.44
2023-03-21T05:44:24.111Z,9.41
2023-03-21T05:45:24.127Z,9.42
2023-03-21T05:46:24.143Z,9.40
2023-03-21T05:47:24.086Z,9.42
2023-03-21T05:48:24.114Z,9.44
2023-03-21T05:49:24.051Z,9.50
2023-03-21T05:50:24.111Z,9.54
2023-03-21T05:51:24.670Z,9.59
2023-03-21T05:52:24.132Z,9.59
2023-03-21T05:53:24.093Z,9.63
2023-03-21T05:54:24.032Z,9.67
2023-03-21T05:55:24.035Z,9.73
2023-03-21T05:56:24.060Z,9.80
2023-03-21T05:57:24.034Z,9.81
2023-03-21T05:58:24.033Z,9.88
2023-03-21T05:59:24.080Z,9.90
2023-03-21T06:00:24.708Z,9.93
2023-03-21T06:01:23.975Z,9.99
2023-03-21T06:02:24.154Z,10.03
2023-03-21T06:03:24.011Z,10.06
2023-03-21T06:04:24.180Z,10.09
2023-03-21T06:05:24.205Z,10.16
2023-03-21T06:06:24.026Z,10.18
2023-03-21T06:07:24.213Z,10.30
2023-03-21T06:08:24.220Z,10.34
2023-03-21T06:09:24.179Z,10.41
2023-03-21T06:10:23.945Z,10.39
2023-03-21T06:11:24.197Z,10.42
2023-03-21T06:12:24.383Z,10.45
2023-03-21T06:13:24.611Z,10.43
2023-03-21T06:14:23.969Z,10.45
2023-03-21T06:15:24.234Z,10.46
2023-03-21T06:16:24.051Z,10.46
2023-03-21T06:17:24.083Z,10.46
2023-03-21T06:18:24.394Z,10.49
2023-03-21T06:19:24.261Z,10.49
2023-03-21T06:20:24.640Z,10.52
2023-03-21T06:21:26.710Z,10.52
2023-03-21T06:22:24.840Z,10.49
2023-03-21T06:23:24.430Z,10.52
2023-03-21T06:24:24.640Z,10.52
2023-03-21T06:25:23.833Z,10.55
2023-03-21T06:26:24.704Z,10.55
2023-03-21T06:27:24.613Z,10.55
2023-03-21T06:28:23.850Z,10.57
2023-03-21T06:29:24.360Z,10.58
2023-03-21T06:30:23.847Z,10.58
2023-03-21T06:31:24.730Z,10.60
2023-03-21T06:32:24.328Z,10.61
2023-03-21T06:33:23.797Z,10.67
2023-03-21T06:34:24.426Z,10.68
2023-03-21T06:35:24.636Z,10.72
2023-03-21T06:36:23.817Z,10.73
2023-03-21T06:37:23.814Z,10.73
2023-03-21T06:38:23.743Z,10.80
2023-03-21T06:39:24.435Z,10.82
2023-03-21T06:40:23.969Z,10.85
2023-03-21T06:41:23.745Z,10.90
2023-03-21T06:42:23.749Z,10.93
2023-03-21T06:43:23.758Z,10.97
2023-03-21T06:44:23.762Z,11.00
2023-03-21T06:45:23.766Z,11.03
2023-03-21T06:46:23.692Z,11.05
2023-03-21T06:47:23.781Z,11.08
2023-03-21T06:48:23.827Z,11.09
2023-03-21T06:49:23.785Z,11.11
2023-03-21T06:50:23.804Z,11.11
2023-03-21T06:51:23.810Z,11.09
2023-03-21T06:52:23.813Z,11.09
2023-03-21T06:53:23.821Z,11.11
2023-03-21T06:54:23.834Z,11.08
2023-03-21T06:55:23.832Z,11.03
2023-03-21T06:56:23.842Z,11.05
2023-03-21T06:57:23.636Z,11.05
2023-03-21T06:58:23.855Z,11.03
2023-03-21T06:59:23.581Z,11.05
2023-03-21T07:00:23.871Z,11.08
2023-03-21T07:01:23.680Z,11.12
2023-03-21T07:02:23.708Z,11.08
2023-03-21T07:03:23.707Z,11.11
2023-03-21T07:04:23.792Z,11.05
2023-03-21T07:05:23.712Z,11.08
2023-03-21T07:06:23.713Z,11.09
2023-03-21T07:07:23.933Z,11.09
2023-03-21T07:08:23.942Z,11.12
2023-03-21T07:09:23.515Z,11.11
2023-03-21T07:10:23.949Z,11.13
2023-03-21T07:11:23.721Z,11.19
2023-03-21T07:12:23.532Z,11.22
2023-03-21T07:13:23.532Z,11.22
2023-03-21T07:14:23.541Z,11.23
2023-03-21T07:15:23.550Z,11.22
2023-03-21T07:16:23.583Z,11.27
2023-03-21T07:17:23.782Z,11.34
2023-03-21T07:18:23.781Z,11.37
2023-03-21T07:19:23.440Z,11.37
2023-03-21T07:20:23.592Z,11.40
2023-03-21T07:21:23.605Z,11.43
2023-03-21T07:22:23.418Z,11.40
2023-03-21T07:23:23.627Z,11.43
2023-03-21T07:24:23.410Z,11.45
2023-03-21T07:25:23.673Z,11.46
2023-03-21T07:26:23.421Z,11.52
2023-03-21T07:27:23.430Z,11.54
2023-03-21T07:28:23.638Z,11.54
2023-03-21T07:29:23.438Z,11.58
2023-03-21T07:30:23.381Z,11.59
2023-03-21T07:31:23.546Z,11.62
2023-03-21T07:32:23.469Z,11.64
2023-03-21T07:33:24.175Z,11.66
2023-03-21T07:34:24.310Z,11.69
2023-03-21T07:35:24.122Z,11.73
2023-03-21T07:36:23.311Z,11.67
2023-03-21T07:37:24.102Z,11.70
2023-03-21T07:38:23.295Z,11.67
2023-03-21T07:39:23.718Z,11.66
2023-03-21T07:40:23.936Z,11.61
2023-03-21T07:41:23.722Z,11.59
2023-03-21T07:42:23.559Z,11.55
2023-03-21T07:43:24.226Z,11.54
2023-03-21T07:44:23.746Z,11.51
2023-03-21T07:45:23.572Z,11.48
2023-03-21T07:46:23.832Z,11.46
2023-03-21T07:47:24.094Z,11.43
2023-03-21T07:48:23.621Z,11.40
2023-03-21T07:49:23.214Z,11.34
2023-03-21T07:50:23.219Z,11.34
2023-03-21T07:51:23.378Z,11.22
2023-03-21T07:52:23.395Z,11.12
2023-03-21T07:53:23.397Z,11.08
2023-03-21T07:54:23.395Z,10.95
2023-03-21T07:55:23.409Z,10.91
2023-03-21T07:56:23.212Z,10.78
2023-03-21T07:57:23.222Z,10.76
2023-03-21T07:58:23.233Z,10.75
2023-03-21T07:59:23.156Z,10.73
2023-03-21T08:00:23.370Z,10.72
2023-03-21T08:01:23.247Z,10.68
2023-03-21T08:02:23.490Z,10.73
2023-03-21T08:03:23.385Z,10.72
2023-03-21T08:04:23.261Z,10.68
2023-03-21T08:05:23.103Z,10.73
2023-03-21T08:06:23.102Z,10.70
2023-03-21T08:07:23.091Z,10.76
2023-03-21T08:08:23.130Z,10.78
2023-03-21T08:09:23.103Z,10.79
2023-03-21T08:10:23.090Z,10.80
2023-03-21T08:11:23.123Z,10.83
2023-03-21T08:12:24.514Z,10.86
2023-03-21T08:13:23.101Z,10.83
2023-03-21T08:14:23.121Z,10.86
2023-03-21T08:15:23.132Z,10.85
2023-03-21T08:16:23.144Z,10.90
2023-03-21T08:17:23.139Z,10.94
2023-03-21T08:18:23.151Z,10.95
2023-03-21T08:19:23.180Z,11.01
2023-03-21T08:20:22.989Z,11.01
2023-03-21T08:21:23.000Z,11.01
2023-03-21T08:22:23.017Z,11.04
2023-03-21T08:23:22.980Z,11.05
2023-03-21T08:24:23.204Z,11.03
2023-03-21T08:25:22.995Z,11.04
2023-03-21T08:26:23.198Z,11.11
2023-03-21T08:27:22.994Z,11.09
2023-03-21T08:28:23.009Z,11.09
2023-03-21T08:29:23.030Z,11.08
2023-03-21T08:30:22.940Z,11.03
2023-03-21T08:31:23.218Z,11.00
2023-03-21T08:32:23.258Z,10.94
2023-03-21T08:33:22.937Z,10.91
2023-03-21T08:34:22.923Z,10.86
2023-03-21T08:35:23.066Z,10.86
2023-03-21T08:36:23.357Z,10.83
2023-03-21T08:37:23.272Z,10.80
2023-03-21T08:38:23.280Z,10.67
2023-03-21T08:39:22.919Z,10.65
2023-03-21T08:40:23.288Z,10.70
2023-03-21T08:41:23.357Z,10.67
2023-03-21T08:42:23.167Z,10.64
2023-03-21T08:43:23.098Z,10.60
2023-03-21T08:44:22.828Z,10.55
2023-03-21T08:45:23.531Z,10.57
2023-03-21T08:46:23.589Z,10.55
2023-03-21T08:47:23.550Z,10.52
2023-03-21T08:48:22.946Z,10.52
2023-03-21T08:49:23.178Z,10.46
2023-03-21T08:50:22.976Z,10.43
2023-03-21T08:51:23.357Z,10.42
2023-03-21T08:52:22.784Z,10.39
2023-03-21T08:53:22.785Z,10.36
2023-03-21T08:54:22.790Z,10.31
2023-03-21T08:55:22.819Z,10.27
2023-03-21T08:56:22.826Z,10.28
2023-03-21T08:57:23.015Z,10.28
2023-03-21T08:58:23.016Z,10.27
2023-03-21T08:59:23.015Z,10.26
2023-03-21T09:00:23.073Z,10.26
2023-03-21T09:01:23.077Z,10.26
2023-03-21T09:02:22.718Z,10.27
2023-03-21T09:03:23.035Z,10.28
2023-03-21T09:04:23.318Z,10.31
2023-03-21T09:05:22.705Z,10.26
2023-03-21T09:06:22.845Z,10.26
2023-03-21T09:07:22.854Z,10.34
2023-03-21T09:08:22.908Z,10.36
2023-03-21T09:09:22.865Z,10.39
2023-03-21T09:10:23.152Z,10.43
2023-03-21T09:11:22.743Z,10.48
2023-03-21T09:12:23.093Z,10.48
2023-03-21T09:13:23.093Z,10.52
2023-03-21T09:14:28.454Z,10.48
2023-03-21T09:15:23.116Z,10.49
2023-03-21T09:16:22.694Z,10.45
2023-03-21T09:17:22.989Z,10.54
2023-03-21T09:18:23.101Z,10.55
2023-03-21T09:19:22.777Z,10.61
2023-03-21T09:20:22.651Z,10.64
2023-03-21T09:21:22.806Z,10.61
2023-03-21T09:22:23.155Z,10.64
2023-03-21T09:23:22.830Z,10.62
2023-03-21T09:24:22.770Z,10.67
2023-03-21T09:25:23.393Z,10.61
2023-03-21T09:26:22.771Z,10.65
2023-03-21T09:27:23.461Z,10.65
2023-03-21T09:28:23.052Z,10.67
2023-03-21T09:29:23.004Z,10.68
2023-03-21T09:30:26.011Z,10.65
2023-03-21T09:31:23.475Z,10.62
2023-03-21T09:32:23.500Z,10.64
2023-03-21T09:33:22.477Z,10.62
2023-03-21T09:34:22.469Z,10.67
2023-03-21T09:35:23.461Z,10.73
2023-03-21T09:36:22.459Z,10.73
2023-03-21T09:37:22.480Z,10.79
2023-03-21T09:38:22.571Z,10.82
2023-03-21T09:39:22.460Z,10.79
2023-03-21T09:40:22.456Z,10.79
2023-03-21T09:41:22.497Z,10.79
2023-03-21T09:42:22.453Z,10.83
2023-03-21T09:43:22.517Z,10.91
2023-03-21T09:44:22.487Z,10.83
2023-03-21T09:45:22.506Z,10.87
2023-03-21T09:46:22.526Z,10.87
2023-03-21T09:47:22.507Z,10.94
2023-03-21T09:48:22.494Z,10.94
2023-03-21T09:49:22.385Z,10.98
2023-03-21T09:50:22.527Z,10.93
2023-03-21T09:51:22.586Z,11.01
2023-03-21T09:52:22.537Z,11.08
2023-03-21T09:53:22.347Z,11.11
2023-03-21T09:54:22.755Z,11.13
2023-03-21T09:55:22.485Z,11.18
2023-03-21T09:56:22.768Z,11.20
2023-03-21T09:57:22.448Z,11.25
2023-03-21T09:58:22.775Z,11.40
2023-03-21T09:59:22.822Z,11.48
2023-03-21T10:00:22.466Z,11.54
2023-03-21T10:01:22.471Z,11.54
2023-03-21T10:02:22.813Z,11.58
2023-03-21T10:03:22.805Z,11.62
2023-03-21T10:04:22.508Z,11.62
2023-03-21T10:05:22.276Z,11.66
2023-03-21T10:06:22.252Z,11.69
2023-03-21T10:07:22.252Z,11.67
2023-03-21T10:08:22.846Z,11.70
2023-03-21T10:09:22.443Z,11.69
2023-03-21T10:10:22.580Z,11.71
2023-03-21T10:11:22.537Z,11.76
2023-03-21T10:12:22.538Z,11.82
2023-03-21T10:13:22.189Z,11.82
2023-03-21T10:14:22.200Z,11.76
2023-03-21T10:15:22.493Z,11.76
2023-03-21T10:16:22.257Z,11.70
2023-03-21T10:17:22.321Z,11.70
2023-03-21T10:18:22.170Z,11.66
2023-03-21T10:19:22.161Z,11.59
2023-03-21T10:20:22.212Z,11.54
2023-03-21T10:21:43.393Z,11.45
2023-03-21T10:22:22.391Z,11.38
2023-03-21T10:23:22.556Z,11.40
2023-03-21T10:24:22.127Z,11.41
2023-03-21T10:25:22.544Z,11.33
2023-03-21T10:26:22.615Z,11.34
2023-03-21T10:27:22.267Z,11.37
2023-03-21T10:28:22.637Z,11.36
2023-03-21T10:29:22.801Z,11.37
2023-03-21T10:30:22.832Z,11.36
2023-03-21T10:31:22.415Z,11.36
2023-03-21T10:32:22.298Z,11.38
2023-03-21T10:33:22.072Z,11.34
2023-03-21T10:34:22.916Z,11.36
2023-03-21T10:35:22.068Z,11.36
2023-03-21T10:36:22.434Z,11.37
2023-03-21T10:37:22.037Z,11.37
2023-03-21T10:38:22.109Z,11.46
2023-03-21T10:39:22.007Z,11.45
2023-03-21T10:40:22.104Z,11.48
2023-03-21T10:41:22.243Z,11.45
2023-03-21T10:42:22.255Z,11.41
2023-03-21T10:43:22.367Z,11.40
2023-03-21T10:44:22.482Z,11.30
2023-03-21T10:45:21.968Z,11.34
2023-03-21T10:46:22.177Z,11.40
2023-03-21T10:47:22.890Z,11.31
2023-03-21T10:48:22.676Z,11.30
2023-03-21T10:49:22.722Z,11.34
2023-03-21T10:50:22.093Z,11.34
2023-03-21T10:51:21.941Z,11.41
2023-03-21T10:52:21.992Z,11.45
2023-03-21T10:53:21.925Z,11.55
2023-03-21T10:54:21.910Z,11.52
2023-03-21T10:55:22.048Z,11.55
2023-03-21T10:56:22.019Z,11.62
2023-03-21T10:57:21.977Z,11.58
2023-03-21T10:58:22.022Z,11.61
2023-03-21T10:59:22.087Z,11.59
2023-03-21T11:00:22.046Z,11.59
2023-03-21T11:01:22.123Z,11.54
2023-03-21T11:02:22.083Z,11.52
2023-03-21T11:03:22.092Z,11.48
2023-03-21T11:04:22.063Z,11.51
2023-03-21T11:05:22.071Z,11.45
2023-03-21T11:06:22.089Z,11.36
2023-03-21T11:07:22.082Z,11.36
2023-03-21T11:08:22.095Z,11.33
2023-03-21T11:09:22.100Z,11.19
2023-03-21T11:10:28.677Z,11.19
2023-03-21T11:11:21.782Z,11.22
2023-03-21T11:12:22.243Z,11.28
2023-03-21T11:13:22.033Z,11.28
2023-03-21T11:14:22.252Z,11.23
2023-03-21T11:15:21.762Z,11.27
2023-03-21T11:16:22.191Z,11.20
2023-03-21T11:17:21.858Z,11.18
2023-03-21T11:18:22.295Z,11.22
2023-03-21T11:19:22.283Z,11.20
2023-03-21T11:20:21.785Z,11.19
2023-03-21T11:21:21.726Z,11.20
2023-03-21T11:22:21.984Z,11.18
2023-03-21T11:23:22.311Z,11.20
2023-03-21T11:24:22.144Z,11.25
2023-03-21T11:25:21.725Z,11.27
2023-03-21T11:26:22.435Z,11.31
2023-03-21T11:27:21.685Z,11.36
2023-03-21T11:28:21.754Z,11.33
2023-03-21T11:29:21.691Z,11.34
2023-03-21T11:30:21.656Z,11.34
2023-03-21T11:31:21.882Z,11.38
2023-03-21T11:32:21.774Z,11.41
2023-03-21T11:33:21.906Z,11.46
2023-03-21T11:34:21.671Z,11.51
2023-03-21T11:35:21.792Z,11.41
2023-03-21T11:36:21.779Z,11.38
2023-03-21T11:37:21.752Z,11.46
2023-03-21T11:38:21.612Z,11.49
2023-03-21T11:39:22.100Z,11.55
2023-03-21T11:40:21.827Z,11.58
2023-03-21T11:41:21.944Z,11.59
2023-03-21T11:42:21.613Z,11.62
2023-03-21T11:43:21.684Z,11.66
2023-03-21T11:44:21.543Z,11.67
2023-03-21T11:45:21.746Z,11.71
2023-03-21T11:46:21.780Z,11.76
2023-03-21T11:47:21.752Z,11.76
2023-03-21T11:48:21.889Z,11.79
2023-03-21T11:49:21.590Z,11.84
2023-03-21T11:50:21.992Z,11.85
2023-03-21T11:51:21.986Z,11.89
2023-03-21T11:52:21.688Z,11.91
2023-03-21T11:53:21.902Z,11.91
2023-03-21T11:54:22.321Z,11.97
2023-03-21T11:55:22.014Z,11.97
2023-03-21T11:56:22.428Z,11.97
2023-03-21T11:57:21.610Z,11.97
2023-03-21T11:58:21.819Z,11.99
2023-03-21T11:59:22.428Z,11.93
2023-03-21T12:00:22.348Z,11.88
2023-03-21T12:01:22.251Z,11.91
2023-03-21T12:02:22.487Z,11.91
2023-03-21T12:03:21.640Z,11.91
2023-03-21T12:04:21.537Z,11.89
2023-03-21T12:05:21.461Z,11.84
2023-03-21T12:06:21.567Z,11.85
2023-03-21T12:07:21.597Z,11.88
2023-03-21T12:08:21.686Z,11.80
2023-03-21T12:09:21.703Z,11.80
2023-03-21T12:10:21.596Z,11.82
2023-03-21T12:11:21.807Z,11.88
2023-03-21T12:12:24.471Z,11.93
2023-03-21T12:13:21.925Z,11.96
2023-03-21T12:14:21.340Z,12.04
2023-03-21T12:15:21.345Z,12.00
2023-03-21T12:16:21.401Z,12.11
2023-03-21T12:17:21.345Z,12.10
2023-03-21T12:18:21.365Z,11.97
2023-03-21T12:19:21.382Z,12.03
2023-03-21T12:20:21.298Z,12.07
2023-03-21T12:21:21.338Z,12.03
2023-03-21T12:22:21.288Z,12.07
2023-03-21T12:23:21.341Z,12.14
2023-03-21T12:24:21.328Z,12.21
2023-03-21T12:25:21.295Z,12.25
2023-03-21T12:26:21.245Z,12.33
2023-03-21T12:27:21.301Z,12.36
2023-03-21T12:28:31.705Z,12.46
2023-03-21T12:29:21.223Z,12.47
2023-03-21T12:30:21.217Z,12.59
2023-03-21T12:31:21.284Z,12.61
2023-03-21T12:32:21.205Z,12.69
2023-03-21T12:33:21.207Z,12.66
2023-03-21T12:34:21.178Z,12.71
2023-03-21T12:35:21.183Z,12.71
2023-03-21T12:36:21.189Z,12.72
2023-03-21T12:37:21.170Z,12.71
2023-03-21T12:38:21.172Z,12.80
2023-03-21T12:39:21.186Z,12.88
2023-03-21T12:40:21.141Z,12.87
2023-03-21T12:41:21.138Z,12.87
2023-03-21T12:42:21.121Z,12.91
2023-03-21T12:43:21.187Z,12.96
2023-03-21T12:44:21.103Z,13.02
2023-03-21T12:45:21.138Z,13.01
2023-03-21T12:46:21.149Z,12.90
2023-03-21T12:47:21.101Z,12.88
2023-03-21T12:48:21.130Z,12.84
2023-03-21T12:49:21.165Z,12.86
2023-03-21T12:50:21.067Z,12.76
2023-03-21T12:51:21.057Z,12.68
2023-03-21T12:52:21.094Z,12.68
2023-03-21T12:53:21.045Z,12.66
2023-03-21T12:54:21.041Z,12.76
2023-03-21T12:55:21.043Z,12.79